Time;durP1;ratioP1;P1;durP2;ratioP2;P2;SDS_P1;SDS_P2;PMS_P1;PMS_P2;Temp;Humidity;BMP_temperature;BMP_pressure;BME280_temperature;BME280_humidity;BME280_pressure;Samples;Min_cycle;Max_cycle;Signal;HPM_P1;HPM_P2
2023/04/29 00:01:57;;;;;;;11.73;8.48;;;;;;;;;;5014334;28;20108;-55
2023/04/29 00:04:23;;;;;;;12.27;8.68;;;;;;;;;;5013832;28;20048;-54
2023/04/29 00:06:49;;;;;;;13.30;9.20;;;;;;;;;;4996524;28;20118;-61
2023/04/29 00:09:14;;;;;;;14.80;9.07;;;;;;;;;;5013906;28;20046;-61
2023/04/29 00:11:39;;;;;;;15.82;8.98;;;;;;;;;;5012393;28;20046;-61
2023/04/29 00:14:05;;;;;;;21.63;11.65;;;;;;;;;;5014266;28;20025;-61
2023/04/29 00:16:30;;;;;;;27.80;14.23;;;;;;;;;;5014070;28;20026;-54
2023/04/29 00:18:56;;;;;;;25.30;13.55;;;;;;;;;;5014085;28;20029;-54
2023/04/29 00:21:21;;;;;;;30.20;15.90;;;;;;;;;;4996899;28;20026;-54
2023/04/29 00:23:47;;;;;;;26.30;13.25;;;;;;;;;;5017467;28;20387;-54
2023/04/29 00:26:12;;;;;;;18.83;11.75;;;;;;;;;;5033460;28;20049;-54
2023/04/29 00:28:42;;;;;;;17.88;10.63;;;;;;;;;;5033400;28;20025;-54
2023/04/29 00:31:07;;;;;;;12.75;8.60;;;;;;;;;;5033400;28;20541;-54
2023/04/29 00:33:33;;;;;;;10.35;7.75;;;;;;;;;;5033394;28;20125;-54
2023/04/29 00:35:58;;;;;;;11.20;8.05;;;;;;;;;;5015619;28;20025;-54
2023/04/29 00:38:23;;;;;;;11.93;7.90;;;;;;;;;;5033298;28;20036;-54
2023/04/29 00:40:49;;;;;;;10.85;8.00;;;;;;;;;;5033706;28;20018;-61
2023/04/29 00:43:14;;;;;;;11.80;8.02;;;;;;;;;;5033249;28;20384;-61
2023/04/29 00:45:39;;;;;;;9.35;7.32;;;;;;;;;;5015693;28;20124;-61
2023/04/29 00:48:05;;;;;;;10.15;8.20;;;;;;;;;;5033687;28;20083;-61
2023/04/29 00:50:30;;;;;;;13.80;9.15;;;;;;;;;;5033901;28;20506;-61
2023/04/29 00:52:56;;;;;;;13.57;9.18;;;;;;;;;;5016154;28;20033;-61
2023/04/29 00:55:22;;;;;;;17.13;10.77;;;;;;;;;;5033646;28;20037;-61
2023/04/29 00:57:51;;;;;;;13.65;8.80;;;;;;;;;;5033523;28;20029;-61
2023/04/29 01:00:16;;;;;;;12.15;8.30;;;;;;;;;;5033678;28;20108;-61
2023/04/29 01:02:43;;;;;;;13.00;8.10;;;;;;;;;;5018813;28;20124;-55
2023/04/29 01:05:09;;;;;;;9.77;7.15;;;;;;;;;;5036953;28;20033;-55
2023/04/29 01:07:53;;;;;;;11.48;7.90;;;;;;;;;;5037244;28;20087;-55
2023/04/29 01:10:25;;;;;;;11.25;7.95;;;;;;;;;;5037329;28;20033;-54
2023/04/29 01:13:17;;;;;;;10.75;7.43;;;;;;;;;;5018849;28;20091;-55
2023/04/29 01:15:48;;;;;;;11.95;8.60;;;;;;;;;;5017632;28;20069;-55
2023/04/29 01:18:18;;;;;;;12.48;8.95;;;;;;;;;;5018802;28;20072;-55
2023/04/29 01:20:44;;;;;;;9.68;7.80;;;;;;;;;;5018847;28;20038;-55
2023/04/29 01:23:11;;;;;;;10.23;7.70;;;;;;;;;;5019553;28;20376;-55
2023/04/29 01:25:38;;;;;;;11.50;8.18;;;;;;;;;;5018597;28;20091;-61
2023/04/29 01:28:11;;;;;;;16.13;9.18;;;;;;;;;;5018558;28;20095;-61
2023/04/29 01:30:41;;;;;;;12.80;8.00;;;;;;;;;;5019281;28;20033;-61
2023/04/29 01:33:15;;;;;;;8.80;6.95;;;;;;;;;;5036594;28;20091;-62
2023/04/29 01:35:41;;;;;;;11.30;7.63;;;;;;;;;;5036317;28;20037;-55
2023/04/29 01:38:13;;;;;;;12.13;7.93;;;;;;;;;;5018787;28;20018;-55
2023/04/29 01:40:45;;;;;;;11.90;8.23;;;;;;;;;;5018439;28;20038;-56
2023/04/29 01:43:18;;;;;;;10.38;7.50;;;;;;;;;;5036877;28;20395;-55
2023/04/29 01:45:46;;;;;;;8.80;7.22;;;;;;;;;;5018888;28;20045;-56
2023/04/29 01:48:14;;;;;;;11.60;6.80;;;;;;;;;;5018197;28;20062;-56
2023/04/29 01:50:40;;;;;;;8.48;7.05;;;;;;;;;;5018242;28;20025;-61
2023/04/29 01:53:10;;;;;;;11.73;7.70;;;;;;;;;;5034908;28;20379;-62
2023/04/29 01:55:35;;;;;;;9.95;7.82;;;;;;;;;;5018292;28;20025;-61
2023/04/29 01:58:13;;;;;;;14.88;7.88;;;;;;;;;;5035179;28;20029;-61
2023/04/29 02:00:48;;;;;;;10.15;7.90;;;;;;;;;;5036168;28;20357;-62
2023/04/29 02:03:14;;;;;;;13.73;8.15;;;;;;;;;;5017757;28;20042;-62
2023/04/29 02:05:44;;;;;;;14.87;8.73;;;;;;;;;;5018383;28;20388;-62
2023/04/29 02:08:11;;;;;;;14.85;9.77;;;;;;;;;;5035089;28;20120;-61
2023/04/29 02:10:40;;;;;;;13.25;9.05;;;;;;;;;;5034934;28;20530;-62
2023/04/29 02:13:20;;;;;;;15.45;9.50;;;;;;;;;;5034184;28;20363;-61
2023/04/29 02:15:46;;;;;;;14.98;9.05;;;;;;;;;;5017950;28;20035;-61
2023/04/29 02:18:11;;;;;;;10.10;7.53;;;;;;;;;;5017708;28;20025;-61
2023/04/29 02:20:37;;;;;;;10.57;7.32;;;;;;;;;;5018275;28;20109;-61
2023/04/29 02:23:04;;;;;;;9.10;6.95;;;;;;;;;;5034158;28;20048;-61
2023/04/29 02:25:29;;;;;;;12.65;7.65;;;;;;;;;;5017633;28;20049;-60
2023/04/29 02:27:57;;;;;;;10.55;7.07;;;;;;;;;;5035452;28;20032;-61
2023/04/29 02:30:22;;;;;;;10.27;6.97;;;;;;;;;;5017989;28;20010;-61
2023/04/29 02:32:48;;;;;;;7.80;6.95;;;;;;;;;;5017823;28;20392;-60
2023/04/29 02:35:13;;;;;;;13.32;7.43;;;;;;;;;;5017764;28;20086;-60
2023/04/29 02:37:39;;;;;;;7.90;6.97;;;;;;;;;;5017639;28;20479;-61
2023/04/29 02:40:07;;;;;;;9.73;6.88;;;;;;;;;;5035435;28;20029;-60
2023/04/29 02:42:32;;;;;;;9.15;6.57;;;;;;;;;;5018057;28;20025;-61
2023/04/29 02:45:00;;;;;;;9.50;7.47;;;;;;;;;;5035265;28;20104;-61
2023/04/29 02:47:25;;;;;;;12.57;7.38;;;;;;;;;;5017145;28;20582;-61
2023/04/29 02:49:50;;;;;;;9.80;7.55;;;;;;;;;;5017546;28;20037;-61
2023/04/29 02:52:16;;;;;;;9.20;7.18;;;;;;;;;;5017600;28;20029;-61
2023/04/29 02:54:41;;;;;;;9.90;7.90;;;;;;;;;;5017534;28;20010;-61
2023/04/29 02:57:07;;;;;;;9.63;7.28;;;;;;;;;;5016729;28;20095;-61
2023/04/29 02:59:33;;;;;;;9.35;7.40;;;;;;;;;;5016858;28;20521;-61
2023/04/29 03:01:58;;;;;;;11.50;7.05;;;;;;;;;;5017333;28;20417;-54
2023/04/29 03:04:24;;;;;;;10.63;7.55;;;;;;;;;;5016559;28;20044;-55
2023/04/29 03:06:50;;;;;;;10.00;7.22;;;;;;;;;;5034959;28;20104;-55
2023/04/29 03:09:15;;;;;;;10.77;7.65;;;;;;;;;;5016717;28;20033;-54
2023/04/29 03:11:43;;;;;;;11.45;6.72;;;;;;;;;;5016932;28;20033;-61
2023/04/29 03:14:08;;;;;;;8.48;6.68;;;;;;;;;;5016847;28;20439;-61
2023/04/29 03:16:34;;;;;;;10.23;7.05;;;;;;;;;;5017170;28;20029;-61
2023/04/29 03:18:59;;;;;;;9.77;6.85;;;;;;;;;;5017358;28;20025;-61
2023/04/29 03:21:26;;;;;;;13.98;7.57;;;;;;;;;;5017195;28;20036;-61
2023/04/29 03:23:51;;;;;;;11.73;7.90;;;;;;;;;;5016257;28;20025;-61
2023/04/29 03:26:23;;;;;;;15.70;8.50;;;;;;;;;;5016699;28;20026;-61
2023/04/29 03:28:49;;;;;;;19.58;9.48;;;;;;;;;;5034717;28;20519;-61
2023/04/29 03:31:15;;;;;;;21.20;10.20;;;;;;;;;;5016238;28;20163;-61
2023/04/29 03:33:41;;;;;;;21.70;10.63;;;;;;;;;;5016819;28;20033;-60
2023/04/29 03:36:07;;;;;;;20.20;9.75;;;;;;;;;;5034988;28;20554;-60
2023/04/29 03:38:39;;;;;;;18.50;9.05;;;;;;;;;;5016522;28;20028;-61
2023/04/29 03:41:06;;;;;;;15.77;8.68;;;;;;;;;;5016154;28;20400;-54
2023/04/29 03:43:32;;;;;;;17.25;8.73;;;;;;;;;;5016797;28;20078;-55
2023/04/29 03:45:58;;;;;;;16.10;8.80;;;;;;;;;;5016848;28;20053;-55
2023/04/29 03:48:23;;;;;;;21.27;9.55;;;;;;;;;;5016158;28;20033;-55
2023/04/29 03:50:50;;;;;;;17.85;8.90;;;;;;;;;;5016199;28;20033;-54
2023/04/29 03:53:16;;;;;;;17.83;8.38;;;;;;;;;;5034138;28;20468;-61
2023/04/29 03:55:42;;;;;;;14.32;9.20;;;;;;;;;;5016349;28;20076;-61
2023/04/29 03:58:08;;;;;;;22.15;9.93;;;;;;;;;;5016560;28;20025;-61
2023/04/29 04:00:34;;;;;;;22.42;10.52;;;;;;;;;;5033662;28;20422;-61
2023/04/29 04:03:03;;;;;;;24.55;10.23;;;;;;;;;;5015977;28;20399;-55
2023/04/29 04:05:28;;;;;;;20.75;9.48;;;;;;;;;;5016511;28;20029;-53
2023/04/29 04:08:00;;;;;;;16.83;8.82;;;;;;;;;;5016556;28;20198;-54
2023/04/29 04:10:45;;;;;;;14.38;8.55;;;;;;;;;;5016226;28;20048;-54
2023/04/29 04:13:33;;;;;;;15.23;8.18;;;;;;;;;;5033831;28;20409;-60
2023/04/29 04:15:59;;;;;;;13.38;8.32;;;;;;;;;;5016042;28;20061;-61
2023/04/29 04:18:24;;;;;;;13.80;7.80;;;;;;;;;;5034257;28;20027;-54
2023/04/29 04:20:50;;;;;;;15.23;8.20;;;;;;;;;;5015463;28;20033;-61
2023/04/29 04:23:15;;;;;;;16.65;8.90;;;;;;;;;;5016549;28;20071;-61
2023/04/29 04:25:46;;;;;;;13.55;7.72;;;;;;;;;;5015502;28;20052;-61
2023/04/29 04:28:32;;;;;;;11.88;7.20;;;;;;;;;;5015744;28;20064;-55
2023/04/29 04:31:02;;;;;;;9.18;7.28;;;;;;;;;;5016061;28;20036;-55
2023/04/29 04:33:28;;;;;;;18.02;11.57;;;;;;;;;;5032029;28;20037;-53
2023/04/29 04:35:54;;;;;;;35.33;19.17;;;;;;;;;;5016806;28;20021;-53
2023/04/29 04:38:19;;;;;;;36.83;20.83;;;;;;;;;;5020039;28;20030;-59
2023/04/29 04:40:50;;;;;;;41.22;21.40;;;;;;;;;;5019882;28;20416;-61
2023/04/29 04:43:41;;;;;;;37.45;19.50;;;;;;;;;;5033232;28;20048;-59
2023/04/29 04:46:14;;;;;;;32.00;16.38;;;;;;;;;;5020123;28;20026;-59
2023/04/29 04:48:53;;;;;;;33.50;17.38;;;;;;;;;;5037388;28;20411;-59
2023/04/29 04:51:20;;;;;;;40.40;19.52;;;;;;;;;;5019585;28;20037;-59
2023/04/29 04:53:46;;;;;;;25.83;13.00;;;;;;;;;;5019746;28;20117;-58
2023/04/29 04:56:18;;;;;;;17.13;9.63;;;;;;;;;;5019214;28;20028;-58
2023/04/29 04:58:43;;;;;;;19.65;9.68;;;;;;;;;;5035919;28;20456;-59
2023/04/29 05:01:10;;;;;;;14.57;8.82;;;;;;;;;;5019500;28;20583;-60
2023/04/29 05:03:39;;;;;;;14.93;9.40;;;;;;;;;;5036817;28;20127;-53
2023/04/29 05:06:04;;;;;;;14.15;9.18;;;;;;;;;;5019623;28;20025;-53
2023/04/29 05:08:30;;;;;;;15.70;9.27;;;;;;;;;;5019542;28;20043;-52
2023/04/29 05:10:58;;;;;;;13.55;8.98;;;;;;;;;;5019324;28;20032;-58
2023/04/29 05:13:24;;;;;;;15.20;9.18;;;;;;;;;;5052963;22;20049;-58
2023/04/29 05:15:50;;;;;;;18.10;9.70;;;;;;;;;;5031646;23;20534;-58
2023/04/29 05:18:45;;;;;;;16.50;9.85;;;;;;;;;;5022305;22;20030;-53
2023/04/29 05:21:13;;;;;;;17.27;9.13;;;;;;;;;;5046172;23;20061;-56
2023/04/29 05:23:39;;;;;;;16.38;8.77;;;;;;;;;;5044359;23;21198;-53
2023/04/29 05:26:06;;;;;;;10.25;7.50;;;;;;;;;;5035418;28;20108;-54
2023/04/29 05:28:32;;;;;;;10.07;7.03;;;;;;;;;;5019071;28;20037;-53
2023/04/29 05:30:57;;;;;;;8.98;6.22;;;;;;;;;;5018300;28;20084;-53
2023/04/29 05:33:23;;;;;;;8.63;6.38;;;;;;;;;;5018502;28;20383;-53
2023/04/29 05:35:48;;;;;;;15.50;8.20;;;;;;;;;;5019185;28;20455;-53
2023/04/29 05:38:14;;;;;;;14.27;10.05;;;;;;;;;;5036214;28;20021;-53
2023/04/29 05:40:48;;;;;;;19.50;11.00;;;;;;;;;;5018139;28;20475;-53
2023/04/29 05:43:16;;;;;;;14.65;8.95;;;;;;;;;;5036725;28;20087;-53
2023/04/29 05:45:45;;;;;;;18.73;10.15;;;;;;;;;;5036617;28;20033;-53
2023/04/29 05:48:10;;;;;;;21.75;12.75;;;;;;;;;;5018210;28;20079;-53
2023/04/29 05:50:36;;;;;;;22.02;12.23;;;;;;;;;;5018432;28;20468;-53
2023/04/29 05:53:01;;;;;;;21.83;12.73;;;;;;;;;;5018467;28;20018;-53
2023/04/29 05:55:26;;;;;;;30.63;14.43;;;;;;;;;;5018331;28;20403;-53
2023/04/29 05:57:52;;;;;;;25.05;11.43;;;;;;;;;;5018535;28;20079;-53
2023/04/29 06:00:17;;;;;;;30.30;12.90;;;;;;;;;;5017567;28;20025;-53
2023/04/29 06:02:44;;;;;;;27.77;13.70;;;;;;;;;;5018026;28;20104;-53
2023/04/29 06:05:11;;;;;;;24.33;12.27;;;;;;;;;;5016766;28;20025;-53
2023/04/29 06:08:09;;;;;;;19.65;10.70;;;;;;;;;;5016346;28;20021;-53
2023/04/29 06:10:50;;;;;;;21.92;11.60;;;;;;;;;;5034366;28;20078;-53
2023/04/29 06:13:16;;;;;;;14.15;8.40;;;;;;;;;;5017225;28;20037;-53
2023/04/29 06:15:41;;;;;;;8.15;6.60;;;;;;;;;;5016924;28;20026;-53
2023/04/29 06:18:07;;;;;;;10.13;6.55;;;;;;;;;;5016686;28;20029;-54
2023/04/29 06:20:32;;;;;;;11.13;7.07;;;;;;;;;;5017165;28;20021;-54
2023/04/29 06:22:58;;;;;;;8.68;6.55;;;;;;;;;;5017408;28;20053;-53
2023/04/29 06:25:23;;;;;;;9.40;6.85;;;;;;;;;;5033353;28;20462;-54
2023/04/29 06:27:50;;;;;;;9.23;5.90;;;;;;;;;;5011275;28;20026;-54
2023/04/29 06:30:18;;;;;;;8.57;5.60;;;;;;;;;;5022685;28;20029;-54
2023/04/29 06:32:43;;;;;;;8.70;5.97;;;;;;;;;;5004922;28;20026;-53
2023/04/29 06:35:09;;;;;;;10.27;7.20;;;;;;;;;;5005207;28;20022;-54
2023/04/29 06:37:55;;;;;;;6.88;5.32;;;;;;;;;;5007871;28;20021;-53
2023/04/29 06:40:47;;;;;;;7.45;5.35;;;;;;;;;;4999612;28;20046;-54
2023/04/29 06:43:15;;;;;;;5.13;4.63;;;;;;;;;;5023090;28;20030;-54
2023/04/29 06:46:04;;;;;;;5.40;4.68;;;;;;;;;;5015709;28;20030;-53
2023/04/29 06:48:38;;;;;;;6.78;5.53;;;;;;;;;;5024751;28;20034;-53
2023/04/29 06:51:04;;;;;;;10.25;8.43;;;;;;;;;;5006243;28;20345;-54
2023/04/29 06:53:29;;;;;;;9.02;6.68;;;;;;;;;;5008459;28;20079;-53
2023/04/29 06:55:55;;;;;;;5.63;4.80;;;;;;;;;;5022244;28;20057;-54
2023/04/29 06:58:20;;;;;;;4.30;3.90;;;;;;;;;;5031325;28;20041;-54
2023/04/29 07:00:47;;;;;;;3.85;3.53;;;;;;;;;;5034981;28;20112;-54
2023/04/29 07:03:13;;;;;;;5.20;3.53;;;;;;;;;;5034728;28;20044;-53
2023/04/29 07:05:40;;;;;;;4.15;3.55;;;;;;;;;;5034739;28;20033;-54
2023/04/29 07:08:07;;;;;;;5.03;3.72;;;;;;;;;;5033780;28;20025;-53
2023/04/29 07:10:32;;;;;;;5.78;3.55;;;;;;;;;;5034684;28;20372;-53
2023/04/29 07:12:59;;;;;;;4.05;3.47;;;;;;;;;;5034290;28;20037;-54
2023/04/29 07:15:25;;;;;;;3.95;3.40;;;;;;;;;;5016577;28;20022;-53
2023/04/29 07:17:50;;;;;;;5.50;3.78;;;;;;;;;;5034894;28;20044;-54
2023/04/29 07:20:16;;;;;;;6.10;3.92;;;;;;;;;;5002808;28;20022;-53
2023/04/29 07:22:41;;;;;;;6.80;4.88;;;;;;;;;;4997249;28;20173;-53
2023/04/29 07:25:07;;;;;;;10.65;6.65;;;;;;;;;;4996603;28;20041;-53
2023/04/29 07:27:33;;;;;;;7.45;5.13;;;;;;;;;;4997116;28;20457;-56
2023/04/29 07:30:00;;;;;;;3.92;3.38;;;;;;;;;;5012493;28;20526;-57
2023/04/29 07:32:25;;;;;;;3.78;3.35;;;;;;;;;;4996153;28;20519;-57
2023/04/29 07:34:51;;;;;;;3.70;3.35;;;;;;;;;;4996226;28;20029;-57
2023/04/29 07:37:17;;;;;;;6.95;4.85;;;;;;;;;;4995652;28;20112;-57
2023/04/29 07:39:44;;;;;;;7.22;4.85;;;;;;;;;;4996262;28;20033;-57
2023/04/29 07:42:09;;;;;;;6.20;3.58;;;;;;;;;;4996456;28;20032;-57
2023/04/29 07:44:35;;;;;;;3.72;3.42;;;;;;;;;;4996221;28;20029;-54
2023/04/29 07:47:01;;;;;;;9.13;5.57;;;;;;;;;;4996723;28;20113;-55
2023/04/29 07:49:27;;;;;;;6.05;4.25;;;;;;;;;;4993487;28;20159;-55
2023/04/29 07:51:52;;;;;;;4.35;3.88;;;;;;;;;;4991094;28;20646;-61
2023/04/29 07:54:18;;;;;;;4.60;4.10;;;;;;;;;;5013862;28;20026;-61
2023/04/29 07:56:44;;;;;;;5.40;3.88;;;;;;;;;;5013597;28;20514;-61
2023/04/29 07:59:13;;;;;;;3.88;3.17;;;;;;;;;;5013988;28;20026;-61
2023/04/29 08:01:39;;;;;;;4.47;3.95;;;;;;;;;;4979799;28;20053;-61
2023/04/29 08:04:06;;;;;;;4.60;4.05;;;;;;;;;;4996437;28;20649;-61
2023/04/29 08:06:36;;;;;;;6.65;5.18;;;;;;;;;;4995969;28;20037;-61
2023/04/29 08:09:02;;;;;;;11.30;6.55;;;;;;;;;;4996609;28;20022;-61
2023/04/29 08:11:27;;;;;;;4.88;4.45;;;;;;;;;;5007178;28;20049;-61
2023/04/29 08:13:53;;;;;;;3.42;3.13;;;;;;;;;;4978548;28;20029;-57
2023/04/29 08:16:20;;;;;;;4.70;3.28;;;;;;;;;;5008956;28;20041;-61
2023/04/29 08:18:46;;;;;;;5.22;3.88;;;;;;;;;;4990237;28;20403;-57
2023/04/29 08:21:11;;;;;;;3.83;3.40;;;;;;;;;;4998006;28;20034;-61
2023/04/29 08:23:37;;;;;;;3.72;3.38;;;;;;;;;;5014546;28;20048;-61
2023/04/29 08:26:03;;;;;;;5.60;3.97;;;;;;;;;;5016002;28;20052;-57
2023/04/29 08:28:28;;;;;;;10.70;6.28;;;;;;;;;;5016521;28;20042;-61
2023/04/29 08:30:54;;;;;;;19.52;12.00;;;;;;;;;;5012354;28;20034;-61
2023/04/29 08:33:19;;;;;;;10.70;7.55;;;;;;;;;;5012719;28;20037;-61
2023/04/29 08:35:45;;;;;;;5.03;4.15;;;;;;;;;;5012903;28;20064;-61
2023/04/29 08:38:10;;;;;;;5.40;4.45;;;;;;;;;;5011230;28;20033;-61
2023/04/29 08:40:40;;;;;;;4.82;4.32;;;;;;;;;;4991595;28;20030;-61
2023/04/29 08:43:05;;;;;;;5.50;4.32;;;;;;;;;;4995517;28;20073;-61
2023/04/29 08:45:32;;;;;;;6.45;4.68;;;;;;;;;;5013265;28;20053;-61
2023/04/29 08:47:59;;;;;;;7.53;5.72;;;;;;;;;;5013031;28;20041;-61
2023/04/29 08:50:25;;;;;;;7.93;6.38;;;;;;;;;;5012943;28;20416;-61
2023/04/29 08:52:50;;;;;;;9.65;6.63;;;;;;;;;;5012406;28;20034;-57
2023/04/29 08:55:17;;;;;;;6.93;5.88;;;;;;;;;;5012652;28;20083;-57
2023/04/29 08:57:43;;;;;;;7.85;5.97;;;;;;;;;;4992862;28;20056;-61
2023/04/29 09:00:09;;;;;;;5.63;4.82;;;;;;;;;;4988358;28;20022;-61
2023/04/29 09:02:40;;;;;;;5.72;4.50;;;;;;;;;;5006240;28;20033;-61
2023/04/29 09:05:10;;;;;;;6.07;3.83;;;;;;;;;;5011097;28;20460;-61
2023/04/29 09:07:36;;;;;;;5.35;4.00;;;;;;;;;;4994805;28;20037;-61
2023/04/29 09:10:03;;;;;;;4.35;3.63;;;;;;;;;;5012268;28;20037;-57
2023/04/29 09:12:29;;;;;;;4.53;3.88;;;;;;;;;;5012131;28;20046;-57
2023/04/29 09:14:55;;;;;;;4.90;4.03;;;;;;;;;;4994330;28;20432;-57
2023/04/29 09:17:36;;;;;;;5.13;4.70;;;;;;;;;;4999303;28;20017;-56
2023/04/29 09:20:06;;;;;;;5.20;3.33;;;;;;;;;;5017652;28;20041;-56
2023/04/29 09:22:46;;;;;;;5.63;4.18;;;;;;;;;;5014015;28;20037;-61
2023/04/29 09:25:11;;;;;;;5.47;4.97;;;;;;;;;;5020307;28;20037;-61
2023/04/29 09:27:37;;;;;;;7.85;7.05;;;;;;;;;;5016015;28;20489;-61
2023/04/29 09:30:04;;;;;;;5.75;5.10;;;;;;;;;;5033661;28;20030;-61
2023/04/29 09:32:29;;;;;;;6.38;5.07;;;;;;;;;;5033867;28;20060;-61
2023/04/29 09:34:55;;;;;;;9.85;8.32;;;;;;;;;;5033841;28;20396;-61
2023/04/29 09:37:26;;;;;;;7.55;6.40;;;;;;;;;;5025091;28;20032;-61
2023/04/29 09:39:52;;;;;;;6.70;6.10;;;;;;;;;;5008920;28;20021;-61
2023/04/29 09:42:18;;;;;;;6.15;5.63;;;;;;;;;;5006149;28;20048;-57
2023/04/29 09:44:44;;;;;;;5.47;4.97;;;;;;;;;;5026690;28;20041;-57
2023/04/29 09:47:09;;;;;;;6.20;5.20;;;;;;;;;;5026187;28;20087;-57
2023/04/29 09:49:39;;;;;;;8.10;6.85;;;;;;;;;;5035104;28;20026;-57
2023/04/29 09:52:06;;;;;;;5.72;5.13;;;;;;;;;;5035106;28;20035;-56
2023/04/29 09:54:33;;;;;;;6.15;4.68;;;;;;;;;;5035115;28;20018;-61
2023/04/29 09:56:59;;;;;;;5.50;5.00;;;;;;;;;;5035053;28;20065;-61
2023/04/29 09:59:25;;;;;;;6.10;5.50;;;;;;;;;;5034521;28;20361;-61
2023/04/29 10:01:51;;;;;;;6.93;4.75;;;;;;;;;;5034489;28;20025;-61
2023/04/29 10:04:17;;;;;;;4.47;4.07;;;;;;;;;;5034583;28;20033;-61
2023/04/29 10:06:43;;;;;;;4.22;3.80;;;;;;;;;;5033520;28;20033;-61
2023/04/29 10:09:10;;;;;;;6.57;3.70;;;;;;;;;;5033698;28;20442;-61
2023/04/29 10:11:38;;;;;;;4.45;3.17;;;;;;;;;;5034212;28;20463;-61
2023/04/29 10:14:04;;;;;;;3.47;3.17;;;;;;;;;;5034513;28;20038;-61
2023/04/29 10:16:32;;;;;;;3.35;3.13;;;;;;;;;;5034117;28;20021;-61
2023/04/29 10:18:59;;;;;;;5.20;4.00;;;;;;;;;;5030985;28;20033;-61
2023/04/29 10:21:31;;;;;;;5.30;4.07;;;;;;;;;;5014911;28;20168;-61
2023/04/29 10:23:57;;;;;;;5.38;3.63;;;;;;;;;;5014540;28;20080;-61
2023/04/29 10:26:25;;;;;;;4.05;3.40;;;;;;;;;;5014840;28;20495;-61
2023/04/29 10:28:52;;;;;;;9.35;8.20;;;;;;;;;;5015032;28;20084;-61
2023/04/29 10:31:18;;;;;;;5.00;4.07;;;;;;;;;;4995669;28;20038;-61
2023/04/29 10:33:46;;;;;;;3.15;2.95;;;;;;;;;;5013503;28;20033;-61
2023/04/29 10:36:12;;;;;;;4.47;3.38;;;;;;;;;;5014470;28;20050;-61
2023/04/29 10:38:49;;;;;;;4.10;3.67;;;;;;;;;;5014149;28;20377;-61
2023/04/29 10:41:24;;;;;;;3.60;3.28;;;;;;;;;;5014403;28;20030;-61
2023/04/29 10:43:53;;;;;;;5.10;4.07;;;;;;;;;;4996532;28;20038;-61
2023/04/29 10:46:19;;;;;;;6.20;3.60;;;;;;;;;;5014399;28;20109;-61
2023/04/29 10:48:46;;;;;;;4.35;3.58;;;;;;;;;;5014873;28;20030;-61
2023/04/29 10:51:11;;;;;;;4.78;3.90;;;;;;;;;;5014604;28;20022;-61
2023/04/29 10:53:56;;;;;;;4.75;4.10;;;;;;;;;;5014324;28;20040;-61
2023/04/29 10:56:34;;;;;;;4.13;3.40;;;;;;;;;;5013889;28;20534;-61
2023/04/29 10:59:00;;;;;;;4.70;3.90;;;;;;;;;;5013862;28;20531;-61
2023/04/29 11:01:39;;;;;;;3.88;3.38;;;;;;;;;;4980328;28;20033;-61
2023/04/29 11:04:05;;;;;;;4.50;3.00;;;;;;;;;;4996752;28;20112;-61
2023/04/29 11:06:33;;;;;;;4.93;3.92;;;;;;;;;;5013925;28;20528;-61
2023/04/29 11:09:03;;;;;;;3.88;3.17;;;;;;;;;;5014316;28;20041;-61
2023/04/29 11:11:48;;;;;;;5.80;3.95;;;;;;;;;;5014125;28;20045;-61
2023/04/29 11:14:14;;;;;;;4.63;4.22;;;;;;;;;;5013276;28;20036;-61
2023/04/29 11:16:53;;;;;;;5.15;4.65;;;;;;;;;;4996318;28;20105;-61
2023/04/29 11:19:19;;;;;;;5.63;3.88;;;;;;;;;;5020011;28;20029;-61
2023/04/29 11:21:45;;;;;;;8.38;6.28;;;;;;;;;;5033131;28;20040;-61
2023/04/29 11:24:11;;;;;;;8.43;5.68;;;;;;;;;;5033304;28;20060;-61
2023/04/29 11:26:37;;;;;;;4.65;3.28;;;;;;;;;;5033389;28;20029;-61
2023/04/29 11:29:04;;;;;;;4.13;3.72;;;;;;;;;;5024491;28;20029;-55
2023/04/29 11:31:30;;;;;;;5.05;3.92;;;;;;;;;;5024558;28;20037;-55
2023/04/29 11:33:55;;;;;;;8.23;3.78;;;;;;;;;;5021971;28;20047;-55
2023/04/29 11:36:21;;;;;;;5.22;3.50;;;;;;;;;;5033556;28;20531;-56
2023/04/29 11:38:46;;;;;;;3.67;3.33;;;;;;;;;;5033087;28;20023;-55
2023/04/29 11:41:12;;;;;;;4.20;3.80;;;;;;;;;;5032830;28;20026;-55
2023/04/29 11:43:38;;;;;;;5.82;3.97;;;;;;;;;;5033504;28;20037;-54
2023/04/29 11:46:10;;;;;;;4.43;4.00;;;;;;;;;;5032484;28;20108;-54
2023/04/29 11:48:35;;;;;;;3.83;3.47;;;;;;;;;;5033009;28;20037;-55
2023/04/29 11:51:01;;;;;;;6.72;3.65;;;;;;;;;;5033182;28;20106;-54
2023/04/29 11:53:26;;;;;;;7.25;4.70;;;;;;;;;;5033052;28;20038;-54
2023/04/29 11:55:52;;;;;;;12.02;7.65;;;;;;;;;;5033145;28;20057;-55
2023/04/29 11:58:21;;;;;;;5.63;5.10;;;;;;;;;;5031915;28;20052;-55
2023/04/29 12:00:47;;;;;;;5.38;4.30;;;;;;;;;;5032688;28;20029;-55
2023/04/29 12:03:13;;;;;;;6.53;4.47;;;;;;;;;;5033461;28;20017;-54
2023/04/29 12:05:39;;;;;;;4.88;4.38;;;;;;;;;;5033238;28;20037;-55
2023/04/29 12:08:06;;;;;;;6.55;4.80;;;;;;;;;;5033364;28;20029;-55
2023/04/29 12:10:34;;;;;;;7.28;4.60;;;;;;;;;;5015640;28;20030;-55
2023/04/29 12:12:59;;;;;;;7.40;4.40;;;;;;;;;;5032860;28;20092;-54
2023/04/29 12:15:25;;;;;;;5.95;3.83;;;;;;;;;;5033021;28;20117;-55
2023/04/29 12:17:51;;;;;;;5.28;4.63;;;;;;;;;;5032619;28;20108;-54
2023/04/29 12:20:16;;;;;;;5.53;4.60;;;;;;;;;;5032648;28;20109;-54
2023/04/29 12:22:42;;;;;;;5.85;4.40;;;;;;;;;;5032977;28;20499;-55
2023/04/29 12:25:08;;;;;;;4.93;3.92;;;;;;;;;;5032872;28;20041;-55
2023/04/29 12:27:35;;;;;;;5.20;4.03;;;;;;;;;;5033021;28;20031;-55
2023/04/29 12:30:00;;;;;;;5.60;4.55;;;;;;;;;;5032023;28;20064;-54
2023/04/29 12:32:25;;;;;;;6.05;5.40;;;;;;;;;;5032723;28;20038;-54
2023/04/29 12:34:51;;;;;;;5.57;3.80;;;;;;;;;;5032330;28;20025;-55
2023/04/29 12:37:17;;;;;;;4.68;4.18;;;;;;;;;;5021846;28;20030;-55
2023/04/29 12:39:43;;;;;;;5.15;4.15;;;;;;;;;;5021471;28;20104;-55
2023/04/29 12:42:17;;;;;;;6.90;5.18;;;;;;;;;;5023222;28;20125;-55
2023/04/29 12:44:46;;;;;;;4.40;4.03;;;;;;;;;;5013059;28;20041;-55
2023/04/29 12:47:15;;;;;;;5.60;4.25;;;;;;;;;;4994768;28;20026;-55
2023/04/29 12:49:41;;;;;;;6.88;4.57;;;;;;;;;;5013057;28;20042;-54
2023/04/29 12:52:09;;;;;;;6.78;4.63;;;;;;;;;;5013102;28;20038;-55
2023/04/29 12:54:35;;;;;;;7.45;4.35;;;;;;;;;;5012832;28;20042;-54
2023/04/29 12:57:01;;;;;;;4.82;4.13;;;;;;;;;;5013511;28;20417;-55
2023/04/29 12:59:26;;;;;;;6.43;5.38;;;;;;;;;;5016643;28;20068;-54
2023/04/29 13:01:52;;;;;;;7.22;4.97;;;;;;;;;;4999024;28;20053;-55
2023/04/29 13:04:17;;;;;;;4.60;4.18;;;;;;;;;;5016787;28;20386;-56
2023/04/29 13:06:42;;;;;;;9.18;4.97;;;;;;;;;;5016338;28;20034;-56
2023/04/29 13:09:12;;;;;;;8.45;6.13;;;;;;;;;;4998633;28;20030;-57
2023/04/29 13:11:38;;;;;;;7.53;5.95;;;;;;;;;;5016351;28;20476;-56
2023/04/29 13:14:05;;;;;;;7.60;5.90;;;;;;;;;;5015467;28;20028;-56
2023/04/29 13:16:32;;;;;;;7.15;5.60;;;;;;;;;;5016349;28;20052;-56
2023/04/29 13:18:57;;;;;;;6.65;5.22;;;;;;;;;;5019352;28;20096;-56
2023/04/29 13:21:22;;;;;;;10.15;5.35;;;;;;;;;;5035799;28;20113;-56
2023/04/29 13:23:48;;;;;;;8.82;6.35;;;;;;;;;;5035672;28;20051;-57
2023/04/29 13:26:13;;;;;;;6.32;5.72;;;;;;;;;;5035592;28;20376;-56
2023/04/29 13:28:38;;;;;;;8.50;5.22;;;;;;;;;;5018203;28;20095;-60
2023/04/29 13:31:04;;;;;;;5.90;4.97;;;;;;;;;;5035885;28;20037;-61
2023/04/29 13:33:30;;;;;;;10.82;6.72;;;;;;;;;;5035416;28;20087;-61
2023/04/29 13:35:56;;;;;;;12.32;8.95;;;;;;;;;;5035512;28;20064;-61
2023/04/29 13:38:22;;;;;;;15.57;10.48;;;;;;;;;;5035322;28;20061;-61
2023/04/29 13:40:47;;;;;;;11.30;7.15;;;;;;;;;;5035464;28;20052;-61
2023/04/29 13:43:13;;;;;;;7.15;5.53;;;;;;;;;;5035464;28;20448;-60
2023/04/29 13:45:38;;;;;;;8.65;6.25;;;;;;;;;;5017792;28;20040;-60
2023/04/29 13:48:03;;;;;;;10.20;5.63;;;;;;;;;;5035348;28;20368;-60
2023/04/29 13:50:29;;;;;;;8.15;5.35;;;;;;;;;;5035483;28;20037;-60
2023/04/29 13:52:55;;;;;;;6.47;5.45;;;;;;;;;;5035195;28;20072;-61
2023/04/29 13:55:20;;;;;;;4.32;3.92;;;;;;;;;;5034721;28;20060;-60
2023/04/29 13:57:46;;;;;;;5.75;3.85;;;;;;;;;;5034771;28;20061;-56
2023/04/29 14:00:11;;;;;;;8.65;6.22;;;;;;;;;;5035260;28;20108;-56
2023/04/29 14:02:37;;;;;;;5.45;4.90;;;;;;;;;;5035049;28;20037;-56
2023/04/29 14:05:03;;;;;;;2.35;2.15;;;;;;;;;;5034863;28;20021;-56
2023/04/29 14:07:28;;;;;;;2.40;2.15;;;;;;;;;;5034871;28;20030;-56
2023/04/29 14:09:53;;;;;;;2.45;2.00;;;;;;;;;;5033781;28;20391;-56
2023/04/29 14:12:19;;;;;;;2.92;2.47;;;;;;;;;;5034759;28;20498;-56
2023/04/29 14:14:44;;;;;;;3.45;3.15;;;;;;;;;;5034259;28;20026;-56
2023/04/29 14:17:09;;;;;;;3.45;3.15;;;;;;;;;;5034972;28;20029;-60
2023/04/29 14:19:35;;;;;;;2.00;1.90;;;;;;;;;;5016967;28;20450;-60
2023/04/29 14:22:00;;;;;;;3.65;1.77;;;;;;;;;;5017052;28;20029;-60
2023/04/29 14:24:26;;;;;;;5.63;2.92;;;;;;;;;;5034796;28;20120;-60
2023/04/29 14:26:52;;;;;;;7.38;4.10;;;;;;;;;;5034724;28;20096;-60
2023/04/29 14:29:17;;;;;;;2.50;2.30;;;;;;;;;;5034875;28;20087;-56
2023/04/29 14:31:42;;;;;;;4.68;3.70;;;;;;;;;;5035635;28;20112;-56
2023/04/29 14:34:08;;;;;;;4.05;3.63;;;;;;;;;;5035445;28;20391;-60
2023/04/29 14:36:33;;;;;;;6.80;5.40;;;;;;;;;;5034453;28;20030;-60
2023/04/29 14:38:59;;;;;;;4.65;4.20;;;;;;;;;;5017514;28;20071;-60